createdAt,value
2018-02-15T00:02:24.166Z,29.80
2018-02-15T00:04:50.833Z,29.70
2018-02-15T00:07:17.460Z,29.90
2018-02-15T00:09:44.096Z,29.80
2018-02-15T00:12:10.719Z,30.30
2018-02-15T00:14:37.343Z,30.30
2018-02-15T00:17:03.940Z,29.80
2018-02-15T00:19:30.582Z,29.40
2018-02-15T00:21:57.195Z,29.70
2018-02-15T00:24:23.781Z,30.10
2018-02-15T00:26:50.377Z,29.90
2018-02-15T00:29:17.047Z,30.20
2018-02-15T00:31:43.647Z,30.20
2018-02-15T00:34:10.267Z,30.50
2018-02-15T00:36:36.846Z,30.90
2018-02-15T00:39:03.516Z,30.30
2018-02-15T00:41:30.167Z,30.90
2018-02-15T00:43:57.487Z,30.50
2018-02-15T00:46:24.122Z,30.30
2018-02-15T00:48:50.736Z,30.10
2018-02-15T01:04:17.170Z,31.40
2018-02-15T01:06:43.799Z,31.70
2018-02-15T01:09:10.394Z,32.00
2018-02-15T01:11:36.987Z,32.60
2018-02-15T01:14:03.553Z,32.80
2018-02-15T01:16:31.079Z,33.30
2018-02-15T01:18:57.700Z,33.30
2018-02-15T01:21:24.281Z,33.10
2018-02-15T01:23:50.883Z,32.70
2018-02-15T01:26:18.071Z,33.30
2018-02-15T01:28:44.691Z,33.70
2018-02-15T01:31:12.045Z,34.70
2018-02-15T01:33:39.398Z,34.50
2018-02-15T01:36:06.754Z,34.50
2018-02-15T01:38:33.361Z,34.40
2018-02-15T01:40:59.965Z,34.30
2018-02-15T01:43:26.547Z,34.50
2018-02-15T01:45:53.895Z,33.70
2018-02-15T01:48:20.545Z,33.70
2018-02-15T01:50:47.163Z,33.40
2018-02-15T01:53:13.773Z,32.90
2018-02-15T01:55:40.359Z,32.60
2018-02-15T01:58:06.917Z,33.30
2018-02-15T02:00:33.531Z,33.00
2018-02-15T02:03:00.918Z,34.10
2018-02-15T02:05:28.218Z,35.00
2018-02-15T02:07:54.830Z,34.80
2018-02-15T02:10:21.401Z,34.20
2018-02-15T02:12:48.010Z,33.70
2018-02-15T02:15:14.607Z,32.40
2018-02-15T02:17:41.310Z,31.80
2018-02-15T02:20:07.908Z,31.20
2018-02-15T02:22:34.518Z,31.70
2018-02-15T02:25:01.850Z,31.60
2018-02-15T02:27:29.171Z,31.80
2018-02-15T02:29:55.759Z,31.80
2018-02-15T02:32:22.333Z,31.90
2018-02-15T02:34:48.905Z,30.30
2018-02-15T02:37:15.504Z,29.80
2018-02-15T02:39:42.866Z,30.30
2018-02-15T02:42:09.598Z,29.70
2018-02-15T02:44:36.226Z,28.60
2018-02-15T02:47:02.797Z,28.30
2018-02-15T02:49:29.435Z,28.10
2018-02-15T02:51:56.529Z,28.20
2018-02-15T02:54:23.123Z,28.20
2018-02-15T02:56:49.676Z,28.30
2018-02-15T02:59:16.269Z,27.80
2018-02-15T03:01:42.856Z,27.00
2018-02-15T03:04:09.461Z,26.60
2018-02-15T03:06:36.062Z,26.60
2018-02-15T03:09:02.770Z,26.00
2018-02-15T03:11:30.137Z,26.70
2018-02-15T03:13:56.725Z,26.60
2018-02-15T03:16:23.335Z,26.10
2018-02-15T03:18:49.924Z,26.00
2018-02-15T03:21:16.529Z,26.60
2018-02-15T03:23:43.129Z,27.00
2018-02-15T03:26:10.545Z,26.50
2018-02-15T03:28:37.895Z,26.30
2018-02-15T03:31:04.547Z,26.30
2018-02-15T03:33:31.115Z,26.10
2018-02-15T03:35:58.449Z,26.00
2018-02-15T03:38:25.772Z,26.10
2018-02-15T03:40:52.386Z,26.10
2018-02-15T03:43:18.974Z,26.60
2018-02-15T03:45:45.586Z,28.40
2018-02-15T03:48:12.166Z,28.80
2018-02-15T03:50:38.786Z,30.00
2018-02-15T03:53:05.375Z,29.80
2018-02-15T03:55:31.961Z,30.80
2018-02-15T03:57:59.291Z,31.90
2018-02-15T04:00:25.899Z,31.80
2018-02-15T04:02:52.485Z,32.30
2018-02-15T04:05:19.093Z,32.30
2018-02-15T04:07:45.641Z,32.30
2018-02-15T04:10:12.212Z,32.30
2018-02-15T04:12:39.540Z,32.70
2018-02-15T04:15:06.134Z,32.50
2018-02-15T04:17:32.710Z,32.60
2018-02-15T04:19:59.275Z,33.10
2018-02-15T04:22:26.629Z,33.30
2018-02-15T04:24:53.946Z,33.10
2018-02-15T04:27:20.573Z,33.10
2018-02-15T04:29:47.163Z,33.10
2018-02-15T04:32:13.755Z,32.60
2018-02-15T04:34:40.396Z,32.10
2018-02-15T04:37:06.967Z,32.20
2018-02-15T04:39:34.298Z,31.90
2018-02-15T04:42:01.625Z,31.90
2018-02-15T04:44:28.210Z,31.80
2018-02-15T04:46:55.544Z,32.10
2018-02-15T04:49:22.177Z,32.10
2018-02-15T04:51:48.881Z,32.10
2018-02-15T04:54:15.485Z,32.40
2018-02-15T04:56:42.068Z,32.40
2018-02-15T04:59:08.647Z,31.30
2018-02-15T05:01:35.277Z,30.80
2018-02-15T05:04:02.673Z,29.00
2018-02-15T05:06:29.251Z,29.00
2018-02-15T05:08:55.983Z,29.00
2018-02-15T05:11:22.551Z,29.10
2018-02-15T05:13:49.136Z,29.40
2018-02-15T05:16:15.706Z,29.90
2018-02-15T05:18:42.297Z,29.90
2018-02-15T05:21:08.887Z,30.00
2018-02-15T05:23:35.512Z,31.10
2018-02-15T05:26:02.067Z,30.00
2018-02-15T05:28:29.411Z,30.80
2018-02-15T05:30:56.739Z,29.60
2018-02-15T05:33:23.324Z,30.00
2018-02-15T05:35:49.918Z,31.00
2018-02-15T05:38:17.310Z,31.20
2018-02-15T05:40:43.945Z,31.10
2018-02-15T05:43:10.557Z,32.50
2018-02-15T05:45:37.890Z,32.90
2018-02-15T05:48:04.470Z,32.80
2018-02-15T05:50:31.082Z,33.10
2018-02-15T05:52:57.677Z,33.40
2018-02-15T05:55:24.277Z,34.70
2018-02-15T05:57:51.611Z,34.40
2018-02-15T06:00:18.230Z,34.30
2018-02-15T06:02:44.802Z,34.30
2018-02-15T06:05:12.151Z,33.10
2018-02-15T06:07:38.739Z,33.00
2018-02-15T06:10:05.927Z,33.60
2018-02-15T06:12:32.542Z,34.10
2018-02-15T06:14:59.404Z,33.90
2018-02-15T06:17:26.021Z,33.90
2018-02-15T06:19:52.615Z,34.00
2018-02-15T06:22:20.175Z,34.30
2018-02-15T06:24:46.808Z,34.20
2018-02-15T06:27:13.436Z,34.30
2018-02-15T06:29:41.097Z,35.50
2018-02-15T06:32:08.431Z,36.80
2018-02-15T06:34:35.041Z,36.80
2018-02-15T06:37:02.420Z,38.20
2018-02-15T06:39:29.042Z,38.20
2018-02-15T06:41:55.644Z,38.90
2018-02-15T06:44:22.302Z,39.20
2018-02-15T06:46:48.918Z,40.50
2018-02-15T06:49:15.588Z,40.90
2018-02-15T06:51:42.219Z,42.10
2018-02-15T06:54:08.842Z,43.40
2018-02-15T06:56:35.476Z,44.70
2018-02-15T06:59:02.075Z,45.70
2018-02-15T07:01:29.438Z,47.60
2018-02-15T07:03:56.804Z,47.70
2018-02-15T07:06:23.412Z,47.60
2018-02-15T07:08:50.031Z,47.70
2018-02-15T07:11:16.709Z,48.70
2018-02-15T07:13:43.311Z,50.40
2018-02-15T07:16:09.921Z,51.90
2018-02-15T07:18:36.523Z,51.40
2018-02-15T07:21:03.166Z,52.40
2018-02-15T07:23:29.757Z,52.40
2018-02-15T07:25:56.419Z,52.80
2018-02-15T07:28:23.874Z,52.60
2018-02-15T07:30:51.230Z,53.30
2018-02-15T07:33:18.599Z,53.70
2018-02-15T07:35:45.207Z,53.60
2018-02-15T07:38:11.946Z,54.30
2018-02-15T07:40:39.323Z,54.10
2018-02-15T07:43:06.666Z,54.40
2018-02-15T07:45:34.018Z,54.90
2018-02-15T07:48:01.420Z,54.50
2018-02-15T07:50:28.107Z,54.50
2018-02-15T07:52:55.512Z,54.80
2018-02-15T07:55:22.152Z,54.60
2018-02-15T07:57:48.768Z,55.00
2018-02-15T08:00:15.407Z,55.00
2018-02-15T08:02:42.015Z,55.60
2018-02-15T08:05:08.677Z,55.70
2018-02-15T08:07:36.051Z,56.00
2018-02-15T08:10:02.694Z,55.90
2018-02-15T08:12:29.345Z,57.10
2018-02-15T08:14:55.978Z,58.10
2018-02-15T08:17:22.592Z,59.60
2018-02-15T08:19:49.215Z,59.90
2018-02-15T08:22:15.830Z,60.10
2018-02-15T08:24:42.504Z,59.40
2018-02-15T08:27:09.126Z,59.60
2018-02-15T08:29:36.479Z,58.50
2018-02-15T08:32:03.906Z,58.60
2018-02-15T08:34:30.504Z,58.60
2018-02-15T08:36:57.118Z,58.60
2018-02-15T08:39:24.575Z,58.90
2018-02-15T08:41:51.537Z,58.90
2018-02-15T08:44:25.271Z,58.60
2018-02-15T08:46:57.558Z,58.90
2018-02-15T08:49:24.172Z,58.40
2018-02-15T08:51:50.815Z,58.00
2018-02-15T08:54:17.408Z,58.00
2018-02-15T08:56:44.059Z,58.00
2018-02-15T08:59:10.707Z,58.10
2018-02-15T09:01:37.359Z,58.10
2018-02-15T09:04:03.999Z,57.30
2018-02-15T09:06:31.055Z,57.10
2018-02-15T09:08:57.692Z,57.20
2018-02-15T09:11:24.314Z,57.10
2018-02-15T09:13:50.993Z,57.10
2018-02-15T09:16:18.415Z,56.90
2018-02-15T09:18:45.106Z,56.90
2018-02-15T09:21:11.767Z,56.80
2018-02-15T09:23:38.422Z,56.90
2018-02-15T09:26:05.056Z,56.90
2018-02-15T09:28:31.734Z,56.60
2018-02-15T09:30:58.376Z,56.10
2018-02-15T09:33:25.804Z,56.60
2018-02-15T09:35:52.445Z,56.60
2018-02-15T09:38:19.110Z,56.60
2018-02-15T09:40:46.454Z,55.80
2018-02-15T09:43:13.103Z,55.70
2018-02-15T09:45:39.732Z,55.90
2018-02-15T09:48:06.444Z,56.10
2018-02-15T09:50:33.069Z,56.20
2018-02-15T09:52:59.731Z,56.10
2018-02-15T09:55:27.099Z,56.00
2018-02-15T09:57:53.818Z,56.00
2018-02-15T10:00:20.443Z,56.00
2018-02-15T10:02:47.121Z,56.00
2018-02-15T10:05:13.800Z,55.00
2018-02-15T10:07:40.438Z,54.90
2018-02-15T10:10:07.102Z,54.50
2018-02-15T10:12:33.776Z,54.40
2018-02-15T10:15:00.439Z,54.30
2018-02-15T10:17:27.073Z,54.30
2018-02-15T10:19:53.737Z,54.10
2018-02-15T10:22:20.374Z,55.10
2018-02-15T10:24:47.027Z,54.80
2018-02-15T10:27:13.690Z,54.20
2018-02-15T10:29:40.339Z,53.50
2018-02-15T10:32:07.732Z,54.20
2018-02-15T10:34:34.436Z,54.20
2018-02-15T10:37:01.109Z,53.50
2018-02-15T10:39:27.737Z,53.70
2018-02-15T10:41:54.339Z,53.10
2018-02-15T10:44:21.003Z,52.80
2018-02-15T10:46:47.645Z,53.00
2018-02-15T10:49:15.003Z,53.20
2018-02-15T10:51:41.647Z,53.10
2018-02-15T10:54:08.271Z,53.10
2018-02-15T10:56:34.896Z,52.60
2018-02-15T10:59:01.552Z,53.20
2018-02-15T11:01:34.311Z,53.10
2018-02-15T11:04:03.619Z,53.10
2018-02-15T11:06:30.973Z,53.10
2018-02-15T11:08:58.344Z,53.20
2018-02-15T11:11:25.008Z,53.10
2018-02-15T11:13:51.745Z,52.90
2018-02-15T11:16:18.274Z,52.90
2018-02-15T11:18:44.946Z,52.90
2018-02-15T11:21:11.574Z,53.50
2018-02-15T11:23:38.175Z,54.20
2018-02-15T11:26:04.815Z,54.00
2018-02-15T11:28:31.422Z,54.40
2018-02-15T11:30:58.075Z,54.60
2018-02-15T11:33:25.708Z,54.40
2018-02-15T11:35:52.310Z,54.40
2018-02-15T11:38:18.926Z,55.10
2018-02-15T11:40:45.571Z,55.30
2018-02-15T11:43:12.216Z,55.50
2018-02-15T11:45:38.854Z,55.70
2018-02-15T11:48:05.450Z,55.20
2018-02-15T11:50:32.822Z,54.40
2018-02-15T11:52:59.436Z,54.40
2018-02-15T11:55:26.080Z,54.50
2018-02-15T11:57:52.846Z,54.90
2018-02-15T12:00:19.464Z,56.20
2018-02-15T12:02:46.863Z,55.30
2018-02-15T12:05:13.522Z,55.30
2018-02-15T12:07:40.132Z,55.30
2018-02-15T12:10:06.806Z,56.30
2018-02-15T12:12:33.471Z,55.60
2018-02-15T12:15:00.168Z,55.90
2018-02-15T12:17:26.763Z,55.70
2018-02-15T12:19:53.406Z,55.50
2018-02-15T12:22:20.008Z,55.30
2018-02-15T12:24:46.655Z,55.30
2018-02-15T12:27:14.026Z,55.60
2018-02-15T12:29:41.412Z,55.70
2018-02-15T12:32:08.060Z,55.70
2018-02-15T12:34:34.699Z,56.10
2018-02-15T12:49:57.382Z,55.90
2018-02-15T12:52:24.029Z,55.40
2018-02-15T12:54:50.686Z,55.50
2018-02-15T12:57:17.312Z,55.50
2018-02-15T12:59:44.330Z,55.50
2018-02-15T13:02:11.769Z,54.90
2018-02-15T13:04:39.080Z,54.90
2018-02-15T13:07:05.754Z,55.60
2018-02-15T13:09:32.410Z,56.30
2018-02-15T13:11:59.770Z,57.00
2018-02-15T13:14:26.500Z,57.00
2018-02-15T13:16:56.655Z,57.00
2018-02-15T13:19:41.745Z,57.00
2018-02-15T13:22:27.463Z,57.70
2018-02-15T13:24:54.028Z,57.60
2018-02-15T13:40:54.136Z,57.90
2018-02-15T13:43:20.763Z,57.80
2018-02-15T13:45:48.134Z,57.60
2018-02-15T13:48:14.794Z,57.60
2018-02-15T13:50:41.474Z,57.40
2018-02-15T13:53:08.266Z,57.30
2018-02-15T13:55:34.903Z,57.40
2018-02-15T13:58:01.540Z,57.60
2018-02-15T14:00:28.250Z,58.00
2018-02-15T14:02:55.670Z,58.50
2018-02-15T14:05:22.404Z,58.40
2018-02-15T14:07:49.045Z,58.30
2018-02-15T14:10:15.899Z,58.30
2018-02-15T14:12:42.557Z,58.00
2018-02-15T14:15:09.191Z,57.90
2018-02-15T14:17:35.879Z,57.60
2018-02-15T14:20:02.541Z,57.80
2018-02-15T14:22:29.207Z,58.30
2018-02-15T14:24:56.655Z,58.80
2018-02-15T14:27:23.310Z,58.80
2018-02-15T14:29:53.472Z,58.90
2018-02-15T14:32:20.101Z,58.90
2018-02-15T14:34:46.857Z,59.10
2018-02-15T14:37:13.576Z,59.00
2018-02-15T14:39:40.212Z,58.90
2018-02-15T14:42:06.912Z,59.00
2018-02-15T14:44:33.563Z,58.80
2018-02-15T14:47:00.956Z,60.40
2018-02-15T14:49:27.598Z,60.40
2018-02-15T14:51:54.242Z,60.40
2018-02-15T14:54:20.905Z,60.40
2018-02-15T14:56:47.588Z,59.60
2018-02-15T14:59:14.210Z,59.40
2018-02-15T15:01:41.675Z,60.10
2018-02-15T15:04:09.403Z,59.90
2018-02-15T15:06:36.059Z,59.80
2018-02-15T15:09:02.775Z,60.00
2018-02-15T15:11:30.224Z,60.50
2018-02-15T15:13:56.936Z,60.40
2018-02-15T15:16:23.595Z,60.50
2018-02-15T15:18:50.251Z,60.60
2018-02-15T15:21:16.953Z,60.50
2018-02-15T15:23:43.572Z,60.90
2018-02-15T15:26:10.227Z,61.20
2018-02-15T15:28:36.877Z,61.30
2018-02-15T15:31:03.552Z,61.40
2018-02-15T15:33:30.188Z,61.70
2018-02-15T15:35:56.948Z,61.90
2018-02-15T15:38:24.374Z,62.30
2018-02-15T15:40:51.060Z,62.20
2018-02-15T15:43:17.779Z,62.50
2018-02-15T15:45:45.212Z,63.00
2018-02-15T15:48:11.927Z,62.90
2018-02-15T15:50:38.577Z,63.00
2018-02-15T15:53:05.193Z,62.90
2018-02-15T15:55:31.823Z,63.50
2018-02-15T15:57:58.516Z,63.30
2018-02-15T16:00:25.914Z,64.40
2018-02-15T16:02:52.583Z,64.20
2018-02-15T16:05:19.268Z,64.30
2018-02-15T16:07:46.656Z,64.40
2018-02-15T16:10:13.295Z,64.40
2018-02-15T16:12:40.080Z,64.80
2018-02-15T16:15:07.472Z,65.40
2018-02-15T16:17:34.099Z,65.30
2018-02-15T16:20:00.899Z,65.30
2018-02-15T16:22:27.844Z,65.30
2018-02-15T16:24:55.208Z,65.30
2018-02-15T16:27:21.853Z,65.70
2018-02-15T16:29:48.543Z,66.10
2018-02-15T16:32:15.473Z,65.60
2018-02-15T16:34:42.143Z,65.90
2018-02-15T16:37:08.797Z,65.70
2018-02-15T16:39:35.456Z,66.10
2018-02-15T16:42:02.085Z,66.40
2018-02-15T16:44:28.749Z,67.20
2018-02-15T16:46:55.418Z,66.60
2018-02-15T16:49:22.084Z,66.50
2018-02-15T16:51:48.719Z,67.00
2018-02-15T16:54:16.236Z,67.10
2018-02-15T16:56:42.921Z,67.40
2018-02-15T16:59:09.593Z,67.90
2018-02-15T17:01:36.231Z,67.90
2018-02-15T17:04:03.647Z,67.40
2018-02-15T17:06:30.352Z,67.40
2018-02-15T17:08:57.009Z,67.40
2018-02-15T17:11:23.670Z,67.50
2018-02-15T17:13:50.327Z,67.50
2018-02-15T17:16:17.744Z,68.30
2018-02-15T17:18:44.461Z,68.30
2018-02-15T17:21:11.137Z,68.20
2018-02-15T17:23:37.765Z,67.80
2018-02-15T17:26:04.434Z,68.40
2018-02-15T17:28:31.869Z,68.10
2018-02-15T17:30:58.551Z,68.00
2018-02-15T17:33:25.251Z,67.60
2018-02-15T17:35:51.878Z,67.60
2018-02-15T17:38:18.544Z,67.50
2018-02-15T17:40:45.948Z,67.80
2018-02-15T17:43:12.666Z,67.80
2018-02-15T17:45:39.370Z,67.90
2018-02-15T17:48:06.041Z,68.40
2018-02-15T17:50:32.726Z,68.40
2018-02-15T17:52:59.424Z,68.00
2018-02-15T17:55:26.076Z,68.30
2018-02-15T17:57:52.751Z,67.80
2018-02-15T18:00:19.418Z,68.20
2018-02-15T18:02:46.424Z,68.20
2018-02-15T18:05:14.075Z,68.00
2018-02-15T18:07:40.752Z,68.40
2018-02-15T18:10:08.200Z,68.50
2018-02-15T18:12:34.860Z,68.50
2018-02-15T18:15:01.588Z,68.50
2018-02-15T18:17:28.320Z,68.60
2018-02-15T18:20:07.191Z,68.70
2018-02-15T18:22:35.016Z,68.70
2018-02-15T18:25:02.528Z,69.70
2018-02-15T18:27:29.156Z,69.60
2018-02-15T18:29:55.987Z,70.10
2018-02-15T18:32:22.640Z,69.80
2018-02-15T18:34:49.389Z,69.80
2018-02-15T18:37:16.049Z,69.70
2018-02-15T18:39:42.741Z,69.80
2018-02-15T18:42:09.463Z,69.80
2018-02-15T18:44:36.173Z,70.00
2018-02-15T18:47:02.889Z,69.50
2018-02-15T18:49:29.690Z,69.50
2018-02-15T18:51:56.395Z,70.40
2018-02-15T18:54:23.506Z,70.30
2018-02-15T18:56:50.152Z,70.10
2018-02-15T18:59:16.802Z,70.00
2018-02-15T19:01:43.527Z,70.20
2018-02-15T19:04:10.226Z,69.90
2018-02-15T19:06:36.932Z,69.80
2018-02-15T19:09:03.709Z,70.30
2018-02-15T19:11:30.385Z,70.10
2018-02-15T19:13:57.063Z,70.40
2018-02-15T19:16:24.498Z,70.10
2018-02-15T19:18:51.155Z,70.10
2018-02-15T19:21:17.989Z,69.90
2018-02-15T19:23:45.592Z,69.90
2018-02-15T19:26:12.239Z,69.90
2018-02-15T19:28:38.945Z,69.80
2018-02-15T19:31:06.359Z,69.80
2018-02-15T19:33:33.018Z,69.70
2018-02-15T19:39:18.855Z,70.00
2018-02-15T19:44:47.389Z,69.50
2018-02-15T19:47:14.048Z,69.10
2018-02-15T19:49:40.716Z,69.80
2018-02-15T19:52:07.439Z,69.40
2018-02-15T19:54:34.138Z,69.50
2018-02-15T19:57:00.825Z,69.50
2018-02-15T19:59:27.469Z,69.30
2018-02-15T20:01:54.135Z,69.80
2018-02-15T20:04:20.792Z,70.10
2018-02-15T20:06:47.559Z,69.40
2018-02-15T20:09:14.233Z,69.80
2018-02-15T20:11:40.882Z,70.40
2018-02-15T20:14:07.564Z,71.20
2018-02-15T20:16:34.977Z,71.30
2018-02-15T20:19:02.354Z,71.40
2018-02-15T20:21:29.079Z,71.30
2018-02-15T20:23:55.755Z,71.40
2018-02-15T20:26:28.490Z,71.40
2018-02-15T20:28:55.215Z,71.20
2018-02-15T20:31:21.866Z,71.40
2018-02-15T20:33:49.258Z,71.40
2018-02-15T20:36:15.966Z,71.40
2018-02-15T20:38:49.444Z,71.50
2018-02-15T20:41:16.132Z,71.40
2018-02-15T20:43:42.855Z,71.40
2018-02-15T20:46:09.581Z,71.40
2018-02-15T20:48:36.267Z,71.40
2018-02-15T20:51:09.196Z,71.40
2018-02-15T20:53:42.545Z,72.00
2018-02-15T20:56:09.230Z,71.90
2018-02-15T20:58:36.620Z,71.60
2018-02-15T21:01:03.302Z,71.50
2018-02-15T21:03:29.963Z,71.50
2018-02-15T21:05:56.696Z,71.60
2018-02-15T21:08:23.368Z,71.60
2018-02-15T21:10:50.015Z,71.70
2018-02-15T21:13:16.704Z,71.60
2018-02-15T21:15:44.698Z,71.80
2018-02-15T21:18:11.368Z,71.90
2018-02-15T21:20:38.099Z,71.50
2018-02-15T21:23:05.636Z,71.60
2018-02-15T21:25:32.282Z,71.80
2018-02-15T21:27:59.007Z,71.60
2018-02-15T21:30:26.422Z,71.60
2018-02-15T21:32:53.103Z,71.60
2018-02-15T21:35:19.757Z,72.00
2018-02-15T21:37:46.457Z,73.20
2018-02-15T21:40:13.113Z,72.90
2018-02-15T21:42:40.511Z,72.50
2018-02-15T21:45:07.279Z,72.60
2018-02-15T21:47:33.939Z,72.60
2018-02-15T21:50:01.391Z,72.80
2018-02-15T21:52:28.040Z,72.80
2018-02-15T21:54:55.415Z,72.80
2018-02-15T21:57:22.052Z,72.80
2018-02-15T21:59:48.733Z,72.80
2018-02-15T22:02:15.407Z,72.30
2018-02-15T22:04:42.089Z,71.80
2018-02-15T22:07:08.792Z,71.70
2018-02-15T22:09:35.494Z,71.80
2018-02-15T22:12:02.931Z,71.80
2018-02-15T22:27:25.928Z,71.30
2018-02-15T22:29:52.524Z,71.20
2018-02-15T22:32:19.459Z,71.70
2018-02-15T22:34:46.062Z,71.60
2018-02-15T22:37:12.663Z,71.60
2018-02-15T22:39:39.277Z,71.60
2018-02-15T22:42:05.895Z,71.60
2018-02-15T22:44:32.544Z,71.60
2018-02-15T22:46:59.237Z,71.50
2018-02-15T22:49:26.570Z,71.60
2018-02-15T22:51:53.199Z,71.60
2018-02-15T22:54:19.824Z,71.30
2018-02-15T22:56:46.442Z,71.50
2018-02-15T22:59:13.060Z,71.50
2018-02-15T23:01:40.042Z,71.50
2018-02-15T23:04:06.687Z,71.50
2018-02-15T23:06:34.074Z,71.20
2018-02-15T23:09:00.694Z,71.10
2018-02-15T23:11:29.393Z,69.80
2018-02-15T23:13:56.035Z,70.10
2018-02-15T23:16:22.679Z,70.10
2018-02-15T23:18:49.343Z,70.40
2018-02-15T23:21:15.988Z,70.40
2018-02-15T23:23:42.627Z,71.30
2018-02-15T23:26:09.259Z,71.30
2018-02-15T23:28:35.870Z,71.30
2018-02-15T23:31:02.474Z,71.30
2018-02-15T23:33:29.102Z,71.40
2018-02-15T23:35:55.712Z,71.40
2018-02-15T23:38:22.380Z,70.70
2018-02-15T23:40:48.970Z,70.80
2018-02-15T23:43:15.625Z,71.20
2018-02-15T23:45:42.282Z,70.80
2018-02-15T23:48:08.911Z,71.30
2018-02-15T23:50:35.557Z,71.40
2018-02-15T23:53:02.203Z,71.40
2018-02-15T23:55:30.259Z,71.40
2018-02-15T23:57:56.907Z,71.30
